Time;durP1;ratioP1;P1;durP2;ratioP2;P2;SDS_P1;SDS_P2;PMS_P1;PMS_P2;Temp;Humidity;BMP_temperature;BMP_pressure;BME280_temperature;BME280_humidity;BME280_pressure;Samples;Min_cycle;Max_cycle;Signal;HPM_P1;HPM_P2
2021/12/20 00:01:20;;;;;;;28.20;4.40;;;;;;;;;;5017824;28;20046;-67
2021/12/20 00:03:47;;;;;;;26.65;3.85;;;;;;;;;;5017414;28;20042;-67
2021/12/20 00:06:14;;;;;;;25.10;5.15;;;;;;;;;;5017702;28;20092;-67
2021/12/20 00:08:40;;;;;;;24.10;4.35;;;;;;;;;;5017734;28;20096;-67
2021/12/20 00:11:07;;;;;;;32.15;4.60;;;;;;;;;;5017828;28;20041;-67
2021/12/20 00:13:33;;;;;;;25.80;3.60;;;;;;;;;;5017374;28;20081;-67
2021/12/20 00:15:59;;;;;;;27.80;4.63;;;;;;;;;;5017192;28;20042;-67
2021/12/20 00:18:25;;;;;;;34.03;5.10;;;;;;;;;;5016881;28;20119;-67
2021/12/20 00:20:51;;;;;;;25.92;4.07;;;;;;;;;;5016726;28;20048;-67
2021/12/20 00:23:17;;;;;;;30.35;4.00;;;;;;;;;;5016974;28;20034;-67
2021/12/20 00:25:48;;;;;;;26.38;4.70;;;;;;;;;;5016956;28;20048;-67
2021/12/20 00:28:14;;;;;;;34.85;4.68;;;;;;;;;;5017229;28;20094;-67
2021/12/20 00:30:40;;;;;;;30.35;4.47;;;;;;;;;;5017508;28;20397;-67
2021/12/20 00:33:06;;;;;;;23.00;3.30;;;;;;;;;;5018478;28;20042;-67
2021/12/20 00:35:32;;;;;;;30.52;5.35;;;;;;;;;;5017629;28;20061;-67
2021/12/20 00:40:44;;;;;;;34.45;3.95;;;;;;;;;;5016804;28;20049;-67
2021/12/20 00:43:10;;;;;;;27.40;4.25;;;;;;;;;;5015630;28;20038;-67
2021/12/20 00:45:38;;;;;;;28.65;4.18;;;;;;;;;;5016192;28;20033;-67
2021/12/20 00:48:09;;;;;;;26.63;4.18;;;;;;;;;;5016092;28;20046;-67
2021/12/20 00:50:37;;;;;;;23.42;4.00;;;;;;;;;;4998220;28;20046;-67
2021/12/20 00:53:03;;;;;;;31.20;4.25;;;;;;;;;;5015990;28;20045;-67
2021/12/20 00:55:30;;;;;;;35.63;4.53;;;;;;;;;;5016708;28;20533;-67
2021/12/20 00:57:58;;;;;;;28.58;4.18;;;;;;;;;;5015812;28;20030;-67
2021/12/20 01:00:25;;;;;;;23.67;3.92;;;;;;;;;;5016186;28;20046;-67
2021/12/20 01:02:53;;;;;;;28.52;4.38;;;;;;;;;;5015656;28;20089;-67
2021/12/20 01:05:21;;;;;;;28.85;4.10;;;;;;;;;;5016695;28;20081;-67
2021/12/20 01:07:48;;;;;;;20.92;3.95;;;;;;;;;;5020604;28;20065;-67
2021/12/20 01:10:14;;;;;;;30.73;3.60;;;;;;;;;;5020524;28;20121;-67
2021/12/20 01:12:51;;;;;;;31.02;4.32;;;;;;;;;;5019204;28;20053;-67
2021/12/20 01:15:19;;;;;;;26.80;4.68;;;;;;;;;;5019707;28;20049;-67
2021/12/20 01:17:45;;;;;;;35.22;4.68;;;;;;;;;;5020854;28;20057;-67
2021/12/20 01:20:12;;;;;;;32.13;4.03;;;;;;;;;;5020060;28;20373;-67
2021/12/20 01:22:38;;;;;;;21.23;3.92;;;;;;;;;;5020382;28;20119;-67
2021/12/20 01:25:04;;;;;;;24.35;3.75;;;;;;;;;;5020348;28;20254;-67
2021/12/20 01:27:30;;;;;;;32.80;4.50;;;;;;;;;;5019983;28;20038;-67
2021/12/20 01:29:57;;;;;;;25.45;3.78;;;;;;;;;;5019850;28;20060;-67
2021/12/20 01:32:23;;;;;;;23.67;4.28;;;;;;;;;;5020892;28;20030;-67
2021/12/20 01:34:50;;;;;;;23.83;3.78;;;;;;;;;;5019543;28;20056;-67
2021/12/20 01:37:16;;;;;;;23.88;4.05;;;;;;;;;;5019987;28;20492;-67
2021/12/20 01:39:42;;;;;;;20.90;3.80;;;;;;;;;;5019486;28;20129;-67
2021/12/20 01:42:09;;;;;;;25.40;3.40;;;;;;;;;;5018920;28;20045;-67
2021/12/20 01:44:37;;;;;;;24.88;3.97;;;;;;;;;;5020161;28;20437;-67
2021/12/20 01:47:07;;;;;;;18.25;3.28;;;;;;;;;;5001987;28;20636;-67
2021/12/20 01:49:40;;;;;;;18.13;3.55;;;;;;;;;;5019214;28;20053;-67
2021/12/20 01:52:13;;;;;;;30.85;3.28;;;;;;;;;;5019578;28;20078;-67
2021/12/20 01:54:40;;;;;;;19.15;3.00;;;;;;;;;;5019388;28;20042;-67
2021/12/20 01:57:06;;;;;;;22.48;3.28;;;;;;;;;;5018574;28;20562;-67
2021/12/20 01:59:32;;;;;;;24.13;3.15;;;;;;;;;;5019628;28;20053;-67
2021/12/20 02:01:58;;;;;;;19.70;3.40;;;;;;;;;;5019093;28;20073;-67
2021/12/20 02:04:24;;;;;;;16.42;2.72;;;;;;;;;;5018550;28;20405;-67
2021/12/20 02:06:50;;;;;;;17.13;2.70;;;;;;;;;;5019868;28;20038;-67
2021/12/20 02:09:19;;;;;;;15.70;3.78;;;;;;;;;;5019786;28;20033;-67
2021/12/20 02:11:47;;;;;;;19.10;3.20;;;;;;;;;;5018386;28;20540;-67
2021/12/20 02:14:14;;;;;;;28.42;3.25;;;;;;;;;;5018465;28;20042;-67
2021/12/20 02:16:40;;;;;;;18.83;2.72;;;;;;;;;;5018562;28;20443;-67
2021/12/20 02:19:12;;;;;;;23.42;3.50;;;;;;;;;;5000434;28;20045;-67
2021/12/20 02:21:39;;;;;;;16.73;2.33;;;;;;;;;;5019044;28;20073;-67
2021/12/20 02:24:05;;;;;;;18.45;2.92;;;;;;;;;;5018522;28;20045;-67
2021/12/20 02:26:32;;;;;;;16.45;2.60;;;;;;;;;;5017806;28;20042;-67
2021/12/20 02:29:04;;;;;;;16.92;3.17;;;;;;;;;;5018316;28;20416;-67
2021/12/20 02:39:30;;;;;;;16.20;2.72;;;;;;;;;;5018178;28;20445;-67
2021/12/20 02:41:56;;;;;;;18.08;2.95;;;;;;;;;;5017341;28;20045;-67
2021/12/20 02:44:24;;;;;;;17.23;2.55;;;;;;;;;;5018077;28;20134;-67
2021/12/20 02:47:05;;;;;;;19.08;2.28;;;;;;;;;;5018127;28;20049;-67
2021/12/20 02:49:32;;;;;;;17.67;3.30;;;;;;;;;;5017220;28;20124;-67
2021/12/20 02:52:06;;;;;;;20.92;2.80;;;;;;;;;;5017306;28;20464;-67
2021/12/20 02:54:32;;;;;;;13.60;2.30;;;;;;;;;;5017520;28;20045;-67
2021/12/20 02:56:58;;;;;;;17.27;2.55;;;;;;;;;;5017143;28;20091;-67
2021/12/20 02:59:24;;;;;;;19.80;2.88;;;;;;;;;;5017537;28;20053;-67
2021/12/20 03:02:01;;;;;;;20.88;3.15;;;;;;;;;;5017225;28;20116;-67
2021/12/20 03:04:27;;;;;;;23.88;2.90;;;;;;;;;;5016752;28;20042;-67
2021/12/20 03:06:55;;;;;;;14.75;2.50;;;;;;;;;;5017147;28;20040;-67
2021/12/20 03:09:23;;;;;;;21.30;2.97;;;;;;;;;;5017590;28;20061;-67
2021/12/20 03:11:51;;;;;;;21.92;2.97;;;;;;;;;;4998788;28;20054;-67
2021/12/20 03:14:31;;;;;;;16.42;3.13;;;;;;;;;;5017327;28;20046;-67
2021/12/20 03:16:58;;;;;;;12.85;2.72;;;;;;;;;;5016718;28;20050;-67
2021/12/20 03:19:27;;;;;;;17.20;2.63;;;;;;;;;;5016249;28;20145;-67
2021/12/20 03:21:53;;;;;;;13.80;2.63;;;;;;;;;;5017847;28;20045;-67
2021/12/20 03:24:19;;;;;;;11.50;2.25;;;;;;;;;;4999814;28;20053;-67
2021/12/20 03:26:45;;;;;;;16.52;2.15;;;;;;;;;;5016369;28;20053;-67
2021/12/20 03:29:11;;;;;;;13.60;2.47;;;;;;;;;;5015913;28;20080;-67
2021/12/20 03:31:38;;;;;;;14.88;2.05;;;;;;;;;;5016974;28;20042;-67
2021/12/20 03:34:06;;;;;;;12.98;2.25;;;;;;;;;;5016336;28;20423;-67
2021/12/20 03:36:32;;;;;;;18.33;2.47;;;;;;;;;;5016675;28;20058;-67
2021/12/20 03:38:58;;;;;;;16.00;2.47;;;;;;;;;;5016418;28;20120;-67
2021/12/20 03:41:24;;;;;;;12.50;1.65;;;;;;;;;;5015199;28;20045;-67
2021/12/20 03:43:51;;;;;;;14.80;2.30;;;;;;;;;;5016266;28;20485;-67
2021/12/20 03:46:17;;;;;;;13.63;1.80;;;;;;;;;;5016801;28;20424;-67
2021/12/20 03:48:43;;;;;;;16.65;2.53;;;;;;;;;;4999468;28;20128;-67
2021/12/20 03:51:09;;;;;;;12.35;1.67;;;;;;;;;;5017084;28;20096;-67
2021/12/20 03:53:36;;;;;;;13.82;2.85;;;;;;;;;;5016785;28;20518;-67
2021/12/20 03:56:04;;;;;;;18.55;2.38;;;;;;;;;;5016626;28;20051;-67
2021/12/20 03:58:30;;;;;;;16.73;2.03;;;;;;;;;;5017767;28;20084;-67
2021/12/20 04:00:57;;;;;;;8.45;1.77;;;;;;;;;;5016883;28;20413;-67
2021/12/20 04:03:24;;;;;;;10.48;1.85;;;;;;;;;;5015751;28;20400;-67
2021/12/20 04:05:50;;;;;;;13.10;2.90;;;;;;;;;;5017009;28;20070;-67
2021/12/20 04:08:16;;;;;;;17.33;2.03;;;;;;;;;;5017104;28;20121;-67
2021/12/20 04:10:43;;;;;;;21.25;1.92;;;;;;;;;;5016587;28;20097;-70
2021/12/20 04:13:10;;;;;;;15.88;2.10;;;;;;;;;;5016451;28;20108;-67
2021/12/20 04:15:37;;;;;;;13.98;1.80;;;;;;;;;;5017145;28;20037;-67
2021/12/20 04:18:03;;;;;;;12.57;2.10;;;;;;;;;;5016008;28;20048;-67
2021/12/20 04:20:31;;;;;;;12.02;2.28;;;;;;;;;;5016844;28;20044;-67
2021/12/20 04:22:57;;;;;;;10.10;2.17;;;;;;;;;;4999097;28;20041;-67
2021/12/20 04:25:23;;;;;;;11.20;1.42;;;;;;;;;;5015957;28;20121;-67
2021/12/20 04:27:49;;;;;;;10.82;2.25;;;;;;;;;;5016589;28;20492;-67
2021/12/20 04:30:15;;;;;;;11.27;2.03;;;;;;;;;;5016645;28;20049;-67
2021/12/20 04:32:42;;;;;;;10.50;2.00;;;;;;;;;;5016126;28;20038;-67
2021/12/20 04:35:10;;;;;;;14.38;2.28;;;;;;;;;;5016474;28;20050;-67
2021/12/20 04:37:37;;;;;;;11.63;2.17;;;;;;;;;;5015942;28;20049;-67
2021/12/20 04:40:07;;;;;;;7.88;1.63;;;;;;;;;;5016112;28;20080;-67
2021/12/20 04:42:33;;;;;;;11.15;1.75;;;;;;;;;;5019524;28;20049;-67
2021/12/20 04:44:59;;;;;;;13.18;2.05;;;;;;;;;;5020034;28;20528;-67
2021/12/20 04:47:26;;;;;;;14.60;1.98;;;;;;;;;;5019792;28;20126;-67
2021/12/20 04:49:52;;;;;;;14.55;2.38;;;;;;;;;;5020058;28;20045;-67
2021/12/20 04:52:18;;;;;;;8.63;1.33;;;;;;;;;;5020085;28;20030;-67
2021/12/20 04:54:44;;;;;;;9.52;2.10;;;;;;;;;;5018245;28;20432;-67
2021/12/20 04:57:10;;;;;;;7.57;1.58;;;;;;;;;;5019327;28;20049;-67
2021/12/20 04:59:37;;;;;;;10.95;2.30;;;;;;;;;;5020126;28;20063;-67
2021/12/20 05:02:03;;;;;;;11.35;1.90;;;;;;;;;;5018590;28;20045;-67
2021/12/20 05:04:29;;;;;;;10.85;2.38;;;;;;;;;;5018771;28;20546;-67
2021/12/20 05:06:55;;;;;;;13.38;2.05;;;;;;;;;;5001499;28;20041;-67
2021/12/20 05:09:25;;;;;;;13.88;2.25;;;;;;;;;;5018749;28;20077;-67
2021/12/20 05:11:58;;;;;;;9.45;1.90;;;;;;;;;;5018648;28;20037;-67
2021/12/20 05:14:24;;;;;;;6.57;2.95;;;;;;;;;;5019138;28;20061;-67
2021/12/20 05:16:51;;;;;;;15.65;2.58;;;;;;;;;;5017848;28;20101;-67
2021/12/20 05:19:17;;;;;;;11.13;2.05;;;;;;;;;;5018358;28;20396;-67
2021/12/20 05:21:43;;;;;;;10.48;2.90;;;;;;;;;;5018162;28;20045;-66
2021/12/20 05:24:09;;;;;;;12.75;1.80;;;;;;;;;;5017764;28;20052;-66
2021/12/20 05:26:35;;;;;;;7.00;1.60;;;;;;;;;;5018114;28;20037;-66
2021/12/20 05:29:06;;;;;;;14.68;2.20;;;;;;;;;;5017302;28;20058;-67
2021/12/20 05:31:34;;;;;;;13.65;2.30;;;;;;;;;;4999730;28;20050;-67
2021/12/20 05:34:00;;;;;;;9.60;1.80;;;;;;;;;;5018488;28;20045;-67
2021/12/20 05:36:26;;;;;;;12.70;1.90;;;;;;;;;;5018130;28;20129;-67
2021/12/20 05:38:52;;;;;;;6.45;1.65;;;;;;;;;;5016673;28;20042;-67
2021/12/20 05:41:19;;;;;;;11.82;1.85;;;;;;;;;;5016350;28;20117;-66
2021/12/20 05:43:45;;;;;;;11.77;1.83;;;;;;;;;;5013153;28;20069;-66
2021/12/20 05:46:11;;;;;;;12.88;1.90;;;;;;;;;;5013490;28;20038;-66
2021/12/20 05:48:37;;;;;;;9.30;2.40;;;;;;;;;;5013532;28;20029;-66
2021/12/20 05:51:03;;;;;;;14.77;2.80;;;;;;;;;;5013614;28;20041;-66
2021/12/20 05:53:29;;;;;;;7.97;1.85;;;;;;;;;;5012244;28;20052;-66
2021/12/20 05:55:55;;;;;;;11.52;2.17;;;;;;;;;;5013671;28;20157;-66
2021/12/20 05:58:21;;;;;;;9.68;1.88;;;;;;;;;;5013396;28;20492;-67
2021/12/20 06:00:47;;;;;;;9.50;2.35;;;;;;;;;;5013072;28;20375;-67
2021/12/20 06:03:13;;;;;;;16.13;2.30;;;;;;;;;;5012857;28;20033;-66
2021/12/20 06:05:41;;;;;;;10.40;1.90;;;;;;;;;;5013374;28;20025;-66
2021/12/20 06:08:08;;;;;;;8.45;1.50;;;;;;;;;;4995210;28;20046;-67
2021/12/20 06:10:35;;;;;;;7.70;1.60;;;;;;;;;;5012487;28;20038;-67
2021/12/20 06:13:01;;;;;;;15.65;2.10;;;;;;;;;;5013568;28;20057;-67
2021/12/20 06:15:27;;;;;;;5.72;1.65;;;;;;;;;;5013220;28;20133;-66
2021/12/20 06:17:53;;;;;;;7.10;1.80;;;;;;;;;;5012463;28;20124;-66
2021/12/20 06:20:19;;;;;;;7.70;1.88;;;;;;;;;;5012771;28;20041;-66
2021/12/20 06:22:45;;;;;;;8.30;1.85;;;;;;;;;;5012716;28;20056;-67
2021/12/20 06:25:12;;;;;;;10.57;1.90;;;;;;;;;;5012057;28;20424;-67
2021/12/20 06:27:38;;;;;;;9.52;1.70;;;;;;;;;;5012926;28;20046;-67
2021/12/20 06:30:08;;;;;;;13.23;2.00;;;;;;;;;;5012810;28;20108;-66
2021/12/20 06:32:36;;;;;;;10.60;2.20;;;;;;;;;;5012311;28;20109;-66
2021/12/20 06:35:02;;;;;;;12.82;2.53;;;;;;;;;;5012983;28;20378;-66
2021/12/20 06:37:28;;;;;;;10.55;2.28;;;;;;;;;;5012624;28;20048;-66
2021/12/20 06:39:54;;;;;;;9.93;1.77;;;;;;;;;;5011849;28;20544;-66
2021/12/20 06:42:20;;;;;;;7.38;1.92;;;;;;;;;;5013043;28;20046;-67
2021/12/20 06:44:46;;;;;;;13.45;1.75;;;;;;;;;;5012488;28;20045;-67
2021/12/20 06:47:12;;;;;;;10.52;1.98;;;;;;;;;;5013363;28;20471;-66
2021/12/20 06:49:38;;;;;;;9.13;1.95;;;;;;;;;;5018553;28;20042;-65
2021/12/20 06:52:04;;;;;;;15.00;2.33;;;;;;;;;;5012549;28;20548;-66
2021/12/20 06:54:30;;;;;;;16.38;3.13;;;;;;;;;;5011341;28;20067;-67
2021/12/20 06:56:56;;;;;;;15.63;2.70;;;;;;;;;;4994497;28;20054;-67
2021/12/20 06:59:22;;;;;;;11.52;2.30;;;;;;;;;;5011905;28;20635;-67
2021/12/20 07:01:48;;;;;;;8.82;2.10;;;;;;;;;;4993007;28;20053;-69
2021/12/20 07:04:15;;;;;;;15.07;2.72;;;;;;;;;;5011546;28;20042;-68
2021/12/20 07:06:41;;;;;;;13.15;2.75;;;;;;;;;;5012376;28;20109;-69
2021/12/20 07:09:08;;;;;;;12.60;2.40;;;;;;;;;;4993070;28;20041;-70
2021/12/20 07:11:34;;;;;;;10.90;2.88;;;;;;;;;;4994437;28;20085;-71
2021/12/20 07:14:00;;;;;;;10.43;2.40;;;;;;;;;;4979979;28;20054;-71
2021/12/20 07:16:26;;;;;;;14.50;2.95;;;;;;;;;;4998849;28;20492;-71
2021/12/20 07:18:52;;;;;;;10.23;2.72;;;;;;;;;;4994742;28;20523;-69
2021/12/20 07:21:18;;;;;;;11.43;2.53;;;;;;;;;;5012040;28;20052;-70
2021/12/20 07:23:44;;;;;;;14.13;2.42;;;;;;;;;;4993453;28;20046;-68
2021/12/20 07:26:11;;;;;;;9.90;1.95;;;;;;;;;;4994606;28;20045;-70
2021/12/20 07:28:39;;;;;;;8.70;2.10;;;;;;;;;;4993555;28;20097;-70
2021/12/20 07:31:05;;;;;;;11.05;3.28;;;;;;;;;;5005137;28;20061;-69
2021/12/20 07:33:31;;;;;;;14.85;2.45;;;;;;;;;;4978005;28;20080;-68
2021/12/20 07:35:57;;;;;;;10.25;2.17;;;;;;;;;;5010460;28;20046;-69
2021/12/20 07:38:24;;;;;;;9.73;1.98;;;;;;;;;;5010651;28;20804;-69
2021/12/20 07:40:50;;;;;;;10.10;1.92;;;;;;;;;;5011482;28;20468;-67
2021/12/20 07:43:18;;;;;;;13.02;2.38;;;;;;;;;;5010950;28;20042;-68
2021/12/20 07:45:47;;;;;;;4.60;1.85;;;;;;;;;;5004578;28;20069;-68
2021/12/20 07:48:13;;;;;;;10.10;2.28;;;;;;;;;;5005527;28;20483;-69
2021/12/20 07:50:39;;;;;;;11.82;2.08;;;;;;;;;;5011134;28;20066;-71
2021/12/20 07:53:05;;;;;;;10.60;2.05;;;;;;;;;;4992677;28;20460;-72
2021/12/20 07:55:31;;;;;;;12.15;2.05;;;;;;;;;;4993484;28;20074;-71
2021/12/20 07:57:59;;;;;;;5.53;1.77;;;;;;;;;;4992837;28;20092;-70
2021/12/20 08:00:25;;;;;;;9.70;2.35;;;;;;;;;;5009735;28;20585;-68
2021/12/20 08:02:51;;;;;;;6.38;1.70;;;;;;;;;;5009248;28;20034;-68
2021/12/20 08:05:19;;;;;;;12.00;2.22;;;;;;;;;;4992042;28;20042;-71
2021/12/20 08:07:47;;;;;;;15.77;2.30;;;;;;;;;;5010151;28;20129;-68
2021/12/20 08:10:13;;;;;;;8.57;1.77;;;;;;;;;;5011520;28;20389;-67
2021/12/20 08:12:39;;;;;;;7.70;1.52;;;;;;;;;;5009654;28;20088;-70
2021/12/20 08:15:06;;;;;;;8.80;2.17;;;;;;;;;;5008566;28;20049;-68
2021/12/20 08:17:32;;;;;;;10.43;2.13;;;;;;;;;;5003282;28;20030;-68
2021/12/20 08:19:58;;;;;;;8.52;1.77;;;;;;;;;;5008485;28;20046;-67
2021/12/20 08:22:25;;;;;;;7.88;1.58;;;;;;;;;;5009997;28;20420;-69
2021/12/20 08:24:51;;;;;;;9.98;1.80;;;;;;;;;;5009634;28;20053;-70
2021/12/20 08:27:17;;;;;;;8.40;1.92;;;;;;;;;;4992059;28;20532;-69
2021/12/20 08:29:44;;;;;;;8.68;2.50;;;;;;;;;;4992332;28;20150;-69
2021/12/20 08:32:10;;;;;;;7.85;1.92;;;;;;;;;;5010371;28;20081;-69
2021/12/20 08:34:36;;;;;;;10.75;2.58;;;;;;;;;;5008074;28;20433;-66
2021/12/20 08:37:02;;;;;;;11.68;1.90;;;;;;;;;;4991168;28;20071;-68
2021/12/20 08:39:29;;;;;;;10.20;2.38;;;;;;;;;;5010495;28;20033;-69
2021/12/20 08:41:55;;;;;;;10.32;2.30;;;;;;;;;;5009867;28;20042;-69
2021/12/20 08:44:21;;;;;;;6.35;1.85;;;;;;;;;;4991597;28;20077;-68
2021/12/20 08:46:47;;;;;;;9.48;2.53;;;;;;;;;;5009231;28;20038;-68
2021/12/20 08:49:13;;;;;;;12.20;2.63;;;;;;;;;;5010344;28;20082;-69
2021/12/20 08:51:39;;;;;;;12.10;2.25;;;;;;;;;;5009462;28;20065;-70
2021/12/20 08:54:06;;;;;;;15.05;2.70;;;;;;;;;;5010714;28;20129;-69
2021/12/20 08:56:32;;;;;;;11.90;2.25;;;;;;;;;;5010608;28;20038;-69
2021/12/20 08:58:58;;;;;;;11.77;2.63;;;;;;;;;;5009807;28;20117;-69
2021/12/20 09:01:24;;;;;;;9.43;1.80;;;;;;;;;;5010467;28;20054;-70
2021/12/20 09:03:50;;;;;;;11.70;2.00;;;;;;;;;;5009231;28;20096;-69
2021/12/20 09:06:17;;;;;;;9.98;2.50;;;;;;;;;;5009649;28;20660;-72
2021/12/20 09:08:43;;;;;;;15.40;2.33;;;;;;;;;;4991405;28;20049;-68
2021/12/20 09:11:09;;;;;;;11.35;1.70;;;;;;;;;;5008742;28;20088;-68
2021/12/20 09:13:35;;;;;;;9.88;1.95;;;;;;;;;;5009483;28;20081;-68
2021/12/20 09:16:01;;;;;;;8.93;1.73;;;;;;;;;;5010389;28;20042;-68
2021/12/20 09:18:28;;;;;;;15.07;2.20;;;;;;;;;;5010579;28;20046;-68
2021/12/20 09:20:55;;;;;;;6.95;2.80;;;;;;;;;;5009364;28;20412;-70
2021/12/20 09:23:21;;;;;;;11.95;1.85;;;;;;;;;;5010269;28;20512;-69
2021/12/20 09:25:48;;;;;;;10.52;1.85;;;;;;;;;;5009660;28;20030;-69
2021/12/20 09:28:15;;;;;;;11.35;1.88;;;;;;;;;;5013297;28;20058;-68
2021/12/20 09:30:42;;;;;;;8.07;2.10;;;;;;;;;;5013428;28;20165;-68
2021/12/20 09:33:09;;;;;;;13.00;2.15;;;;;;;;;;4995657;28;20096;-70
2021/12/20 09:35:35;;;;;;;8.40;1.80;;;;;;;;;;5013320;28;20080;-69
2021/12/20 09:38:05;;;;;;;14.65;1.90;;;;;;;;;;5013476;28;20041;-69
2021/12/20 09:40:38;;;;;;;17.80;2.50;;;;;;;;;;5012120;28;20073;-70
2021/12/20 09:43:03;;;;;;;;;;;;;;;;;;5013653;28;20061;-70
2021/12/20 09:45:30;;;;;;;20.55;4.40;;;;;;;;;;5013790;28;19921;-70
2021/12/20 09:47:56;;;;;;;13.30;3.72;;;;;;;;;;4995632;28;20037;-70
2021/12/20 09:50:23;;;;;;;22.02;4.15;;;;;;;;;;5012716;28;20069;-70
2021/12/20 09:52:49;;;;;;;15.30;3.50;;;;;;;;;;5012809;28;20030;-70
2021/12/20 09:55:15;;;;;;;20.15;5.10;;;;;;;;;;4994976;28;20099;-71
2021/12/20 09:57:42;;;;;;;13.85;3.10;;;;;;;;;;4995180;28;20511;-69
2021/12/20 10:00:10;;;;;;;21.17;4.38;;;;;;;;;;4995371;28;20065;-69
2021/12/20 10:02:36;;;;;;;15.10;3.25;;;;;;;;;;5013513;28;20452;-70
2021/12/20 10:05:03;;;;;;;22.02;3.72;;;;;;;;;;5011742;28;20054;-70
2021/12/20 10:07:29;;;;;;;20.30;3.17;;;;;;;;;;4995027;28;20064;-70
2021/12/20 10:09:56;;;;;;;17.23;3.03;;;;;;;;;;4995312;28;20092;-67
2021/12/20 10:12:24;;;;;;;24.48;3.40;;;;;;;;;;5012986;28;20042;-68
2021/12/20 10:14:56;;;;;;;19.83;3.30;;;;;;;;;;5012304;28;20053;-71
2021/12/20 10:17:22;;;;;;;22.40;3.60;;;;;;;;;;4997296;28;20050;-72
2021/12/20 10:19:49;;;;;;;21.75;3.80;;;;;;;;;;4978989;28;20050;-69
2021/12/20 10:22:28;;;;;;;16.70;3.22;;;;;;;;;;5012413;28;20471;-70
2021/12/20 10:24:57;;;;;;;16.33;3.97;;;;;;;;;;4994872;28;20050;-71
2021/12/20 10:27:34;;;;;;;14.18;2.78;;;;;;;;;;4994937;28;20037;-69
2021/12/20 10:30:01;;;;;;;16.70;3.08;;;;;;;;;;5004059;28;20069;-68
2021/12/20 10:32:40;;;;;;;18.38;3.28;;;;;;;;;;5012166;28;20173;-70
2021/12/20 10:35:27;;;;;;;12.57;2.67;;;;;;;;;;4994829;28;20041;-70
2021/12/20 10:37:53;;;;;;;17.90;2.65;;;;;;;;;;4994359;28;20046;-71
2021/12/20 10:40:19;;;;;;;22.25;4.65;;;;;;;;;;4994861;28;20042;-71
2021/12/20 10:42:45;;;;;;;18.58;3.22;;;;;;;;;;4992584;28;20389;-71
2021/12/20 10:45:14;;;;;;;17.88;3.30;;;;;;;;;;4995086;28;20042;-72
2021/12/20 10:47:43;;;;;;;15.07;3.22;;;;;;;;;;4995510;28;20037;-72
2021/12/20 10:50:28;;;;;;;18.60;3.20;;;;;;;;;;4993914;28;20069;-71
2021/12/20 10:53:10;;;;;;;22.67;3.40;;;;;;;;;;4978380;28;20476;-72
2021/12/20 10:55:40;;;;;;;16.38;3.25;;;;;;;;;;4993079;28;20511;-71
2021/12/20 10:58:16;;;;;;;14.05;2.65;;;;;;;;;;4994576;28;20053;-71
2021/12/20 11:00:42;;;;;;;18.98;3.65;;;;;;;;;;4994557;28;20099;-70
2021/12/20 11:05:45;;;;;;;16.45;3.05;;;;;;;;;;5010733;28;20392;-70
2021/12/20 11:11:10;;;;;;;13.60;2.50;;;;;;;;;;4994535;28;20046;-72
2021/12/20 11:13:37;;;;;;;14.98;3.22;;;;;;;;;;4993807;28;20038;-71
2021/12/20 11:16:26;;;;;;;14.10;3.67;;;;;;;;;;4978366;28;20050;-69
2021/12/20 11:19:07;;;;;;;13.98;3.35;;;;;;;;;;4994298;28;20121;-69
2021/12/20 11:21:37;;;;;;;19.58;3.63;;;;;;;;;;5008875;28;20088;-69
2021/12/20 11:24:04;;;;;;;12.02;2.20;;;;;;;;;;5010959;28;20050;-70
2021/12/20 11:26:31;;;;;;;17.55;3.33;;;;;;;;;;5010907;28;20073;-69
2021/12/20 11:28:57;;;;;;;9.85;2.22;;;;;;;;;;4993659;28;20104;-69
2021/12/20 11:31:24;;;;;;;11.13;2.15;;;;;;;;;;4992968;28;20077;-69
2021/12/20 11:33:50;;;;;;;6.82;1.55;;;;;;;;;;5009970;28;20057;-69
2021/12/20 11:36:16;;;;;;;12.73;1.95;;;;;;;;;;5010803;28;20059;-69
2021/12/20 11:38:42;;;;;;;9.02;1.70;;;;;;;;;;4993688;28;20049;-69
2021/12/20 11:41:08;;;;;;;8.00;1.65;;;;;;;;;;4993455;28;20496;-69
2021/12/20 11:43:34;;;;;;;10.73;1.30;;;;;;;;;;4993454;28;20049;-69
2021/12/20 11:46:01;;;;;;;8.70;1.50;;;;;;;;;;4993965;28;20496;-69
2021/12/20 11:48:29;;;;;;;5.85;1.10;;;;;;;;;;4994096;28;20096;-69
2021/12/20 11:50:56;;;;;;;6.22;1.40;;;;;;;;;;5009931;28;20045;-69
2021/12/20 11:53:22;;;;;;;9.25;1.52;;;;;;;;;;4993850;28;20044;-70
2021/12/20 11:55:52;;;;;;;9.27;1.77;;;;;;;;;;4994217;28;20381;-69
2021/12/20 11:58:28;;;;;;;6.78;1.27;;;;;;;;;;4985964;28;20108;-69
2021/12/20 12:01:15;;;;;;;8.18;1.58;;;;;;;;;;5008329;28;20116;-68
2021/12/20 12:03:50;;;;;;;4.72;1.33;;;;;;;;;;5004279;28;20030;-69
2021/12/20 12:06:23;;;;;;;11.35;1.83;;;;;;;;;;5002411;28;20030;-68
2021/12/20 12:08:49;;;;;;;10.20;1.88;;;;;;;;;;4992713;28;20547;-68
2021/12/20 12:11:15;;;;;;;9.60;2.08;;;;;;;;;;4989453;28;20045;-66
2021/12/20 12:13:46;;;;;;;9.55;1.85;;;;;;;;;;5010131;28;20042;-66
2021/12/20 12:16:27;;;;;;;9.38;1.65;;;;;;;;;;5010457;28;20037;-65
2021/12/20 12:18:53;;;;;;;7.03;1.42;;;;;;;;;;5009887;28;20068;-64
2021/12/20 12:21:32;;;;;;;7.35;1.23;;;;;;;;;;5009270;28;20033;-63
2021/12/20 12:24:02;;;;;;;4.80;1.15;;;;;;;;;;5021240;28;20041;-64
2021/12/20 12:26:32;;;;;;;3.58;0.90;;;;;;;;;;5010513;28;20072;-62
2021/12/20 12:28:59;;;;;;;6.13;0.90;;;;;;;;;;5009824;28;20104;-68
2021/12/20 12:31:26;;;;;;;4.30;1.00;;;;;;;;;;4995485;28;20541;-67
2021/12/20 12:34:11;;;;;;;4.10;1.02;;;;;;;;;;5006837;28;20037;-67
2021/12/20 12:36:42;;;;;;;7.07;1.45;;;;;;;;;;5010454;28;20157;-68
2021/12/20 12:39:12;;;;;;;10.20;1.48;;;;;;;;;;5011261;28;20326;-66
2021/12/20 12:41:46;;;;;;;4.00;1.00;;;;;;;;;;4999305;28;20095;-66
2021/12/20 12:44:22;;;;;;;8.45;1.40;;;;;;;;;;4990490;28;20049;-68
2021/12/20 12:46:51;;;;;;;6.25;1.02;;;;;;;;;;4996670;28;21670;-67
2021/12/20 12:49:23;;;;;;;4.25;1.27;;;;;;;;;;4998323;28;20037;-69
2021/12/20 12:51:50;;;;;;;6.38;1.23;;;;;;;;;;5009559;28;20038;-69
2021/12/20 12:54:31;;;;;;;8.52;1.67;;;;;;;;;;4991147;28;20103;-68
2021/12/20 12:57:12;;;;;;;4.93;1.13;;;;;;;;;;5009290;28;20049;-67
2021/12/20 12:59:45;;;;;;;4.95;0.80;;;;;;;;;;5011185;28;20120;-66
2021/12/20 13:02:12;;;;;;;5.68;0.82;;;;;;;;;;5004560;28;20053;-66
2021/12/20 13:04:45;;;;;;;3.97;0.63;;;;;;;;;;5011907;28;20045;-68
2021/12/20 13:07:11;;;;;;;3.72;0.80;;;;;;;;;;5013354;28;20078;-69
2021/12/20 13:09:44;;;;;;;4.38;1.10;;;;;;;;;;5014519;28;20041;-69
2021/12/20 13:12:18;;;;;;;4.78;0.98;;;;;;;;;;5024472;28;20149;-67
2021/12/20 13:15:05;;;;;;;5.07;1.00;;;;;;;;;;5013102;28;20137;-66
2021/12/20 13:17:34;;;;;;;2.78;1.27;;;;;;;;;;5021752;28;20038;-67
2021/12/20 13:20:38;;;;;;;5.85;1.05;;;;;;;;;;5014469;28;20049;-66
2021/12/20 13:23:23;;;;;;;5.30;0.88;;;;;;;;;;4994042;28;20399;-66
2021/12/20 13:25:54;;;;;;;4.45;0.90;;;;;;;;;;5012253;28;20041;-67
2021/12/20 13:28:26;;;;;;;6.13;0.93;;;;;;;;;;5017148;28;20046;-68
2021/12/20 13:30:55;;;;;;;1.50;0.90;;;;;;;;;;5013799;28;20034;-67
2021/12/20 13:33:23;;;;;;;5.88;0.70;;;;;;;;;;5012665;28;20797;-68
2021/12/20 13:35:51;;;;;;;3.78;0.90;;;;;;;;;;5013880;28;20534;-67
2021/12/20 13:38:20;;;;;;;3.90;0.80;;;;;;;;;;5013591;28;20129;-69
2021/12/20 13:40:48;;;;;;;2.45;0.85;;;;;;;;;;5014376;28;20100;-68
2021/12/20 13:43:18;;;;;;;3.03;1.05;;;;;;;;;;4999276;28;20053;-68
2021/12/20 13:45:44;;;;;;;5.10;1.45;;;;;;;;;;5017695;28;20160;-69
2021/12/20 13:48:10;;;;;;;4.38;1.20;;;;;;;;;;5015034;28;20038;-70
2021/12/20 13:50:36;;;;;;;3.00;1.00;;;;;;;;;;5013895;28;20125;-68
2021/12/20 13:53:02;;;;;;;1.60;0.65;;;;;;;;;;5015088;28;20069;-68
2021/12/20 13:55:28;;;;;;;4.30;1.17;;;;;;;;;;5011631;28;20438;-67
2021/12/20 13:57:54;;;;;;;2.28;0.63;;;;;;;;;;5012561;28;20129;-68
2021/12/20 14:00:20;;;;;;;5.13;0.75;;;;;;;;;;4979018;28;20095;-67
2021/12/20 14:02:50;;;;;;;1.73;0.50;;;;;;;;;;5012026;28;20049;-69
2021/12/20 14:05:20;;;;;;;3.08;0.70;;;;;;;;;;4994452;28;20661;-67
2021/12/20 14:08:01;;;;;;;1.92;0.60;;;;;;;;;;5012735;28;20388;-69
2021/12/20 14:10:29;;;;;;;2.58;0.70;;;;;;;;;;5011545;28;20447;-67
2021/12/20 14:13:03;;;;;;;2.38;0.80;;;;;;;;;;5023160;28;20034;-66
2021/12/20 14:15:31;;;;;;;2.78;0.88;;;;;;;;;;5010978;28;20042;-67
2021/12/20 14:18:01;;;;;;;2.10;0.60;;;;;;;;;;5010575;28;20037;-66
2021/12/20 14:20:46;;;;;;;3.00;0.60;;;;;;;;;;5010935;28;20675;-66
2021/12/20 14:23:15;;;;;;;3.05;0.60;;;;;;;;;;4994026;28;20045;-70
2021/12/20 14:25:43;;;;;;;3.80;0.82;;;;;;;;;;5012433;28;20038;-70
2021/12/20 14:28:09;;;;;;;1.00;0.40;;;;;;;;;;4996793;28;20058;-68
2021/12/20 14:30:36;;;;;;;4.45;1.00;;;;;;;;;;4994280;28;20057;-69
2021/12/20 14:33:17;;;;;;;3.03;0.77;;;;;;;;;;5016253;28;20125;-69
2021/12/20 14:35:49;;;;;;;2.20;0.98;;;;;;;;;;5003864;28;20091;-67
2021/12/20 14:38:32;;;;;;;4.28;0.77;;;;;;;;;;5012518;28;20428;-66
2021/12/20 14:40:58;;;;;;;2.50;0.95;;;;;;;;;;5005514;28;20073;-66
2021/12/20 14:43:32;;;;;;;5.03;1.02;;;;;;;;;;5010462;28;20052;-65
2021/12/20 14:46:14;;;;;;;3.38;0.82;;;;;;;;;;5011405;28;20042;-67
2021/12/20 14:48:44;;;;;;;3.35;0.88;;;;;;;;;;5010498;28;20113;-66
2021/12/20 14:51:17;;;;;;;3.60;0.90;;;;;;;;;;5011006;28;20100;-68
2021/12/20 14:53:43;;;;;;;3.80;0.90;;;;;;;;;;5011504;28;20117;-66
2021/12/20 14:56:10;;;;;;;5.80;1.20;;;;;;;;;;5025455;28;20393;-66
2021/12/20 14:58:37;;;;;;;4.35;1.48;;;;;;;;;;5012613;28;20099;-66